sensor_id;sensor_type;location;lat;lon;timestamp;P1;durP1;ratioP1;P2;durP2;ratioP2
75426;SDS011;64007;50.632;13.700;2023-02-01T00:01:29;11.20;;;2.25;;
75426;SDS011;64007;50.632;13.700;2023-02-01T00:03:55;6.25;;;1.95;;
75426;SDS011;64007;50.632;13.700;2023-02-01T00:06:21;8.75;;;2.00;;
75426;SDS011;64007;50.632;13.700;2023-02-01T00:08:47;6.43;;;1.73;;
75426;SDS011;64007;50.632;13.700;2023-02-01T00:11:12;4.47;;;1.70;;
75426;SDS011;64007;50.632;13.700;2023-02-01T00:13:39;5.60;;;1.75;;
75426;SDS011;64007;50.632;13.700;2023-02-01T00:16:16;4.80;;;1.80;;
75426;SDS011;64007;50.632;13.700;2023-02-01T00:18:44;5.05;;;1.67;;
75426;SDS011;64007;50.632;13.700;2023-02-01T00:21:14;12.55;;;1.83;;
75426;SDS011;64007;50.632;13.700;2023-02-01T00:23:42;10.15;;;1.80;;
75426;SDS011;64007;50.632;13.700;2023-02-01T00:26:11;4.78;;;1.98;;
75426;SDS011;64007;50.632;13.700;2023-02-01T00:28:40;5.40;;;1.75;;
75426;SDS011;64007;50.632;13.700;2023-02-01T00:31:06;8.10;;;1.90;;
75426;SDS011;64007;50.632;13.700;2023-02-01T00:33:31;5.03;;;1.52;;
75426;SDS011;64007;50.632;13.700;2023-02-01T00:35:58;8.85;;;2.03;;
75426;SDS011;64007;50.632;13.700;2023-02-01T00:38:26;3.90;;;1.60;;
75426;SDS011;64007;50.632;13.700;2023-02-01T00:40:52;4.93;;;1.75;;
75426;SDS011;64007;50.632;13.700;2023-02-01T00:43:19;8.75;;;2.28;;
75426;SDS011;64007;50.632;13.700;2023-02-01T00:45:45;4.07;;;1.42;;
75426;SDS011;64007;50.632;13.700;2023-02-01T00:48:12;9.68;;;1.95;;
75426;SDS011;64007;50.632;13.700;2023-02-01T00:50:43;6.55;;;1.60;;
75426;SDS011;64007;50.632;13.700;2023-02-01T00:53:10;5.88;;;1.67;;
75426;SDS011;64007;50.632;13.700;2023-02-01T00:55:36;7.60;;;1.65;;
75426;SDS011;64007;50.632;13.700;2023-02-01T00:58:02;9.05;;;1.75;;
75426;SDS011;64007;50.632;13.700;2023-02-01T01:00:28;6.03;;;1.58;;
75426;SDS011;64007;50.632;13.700;2023-02-01T01:02:54;4.43;;;1.50;;
75426;SDS011;64007;50.632;13.700;2023-02-01T01:05:21;7.90;;;1.77;;
75426;SDS011;64007;50.632;13.700;2023-02-01T01:07:47;6.60;;;1.50;;
75426;SDS011;64007;50.632;13.700;2023-02-01T01:10:12;5.97;;;1.67;;
75426;SDS011;64007;50.632;13.700;2023-02-01T01:12:38;4.47;;;1.50;;
75426;SDS011;64007;50.632;13.700;2023-02-01T01:15:04;11.48;;;2.00;;
75426;SDS011;64007;50.632;13.700;2023-02-01T01:17:31;8.23;;;1.88;;
75426;SDS011;64007;50.632;13.700;2023-02-01T01:19:56;5.45;;;1.63;;
75426;SDS011;64007;50.632;13.700;2023-02-01T01:22:22;5.10;;;1.42;;
75426;SDS011;64007;50.632;13.700;2023-02-01T01:24:48;9.00;;;1.77;;
75426;SDS011;64007;50.632;13.700;2023-02-01T01:27:17;8.55;;;1.38;;
75426;SDS011;64007;50.632;13.700;2023-02-01T01:29:48;6.50;;;1.23;;
75426;SDS011;64007;50.632;13.700;2023-02-01T01:32:14;4.72;;;1.60;;
75426;SDS011;64007;50.632;13.700;2023-02-01T01:34:40;7.25;;;1.65;;
75426;SDS011;64007;50.632;13.700;2023-02-01T01:37:06;9.52;;;1.70;;
75426;SDS011;64007;50.632;13.700;2023-02-01T01:39:31;12.32;;;1.75;;
75426;SDS011;64007;50.632;13.700;2023-02-01T01:41:57;9.00;;;1.98;;
75426;SDS011;64007;50.632;13.700;2023-02-01T01:47:20;9.57;;;1.70;;
75426;SDS011;64007;50.632;13.700;2023-02-01T01:49:46;4.00;;;1.60;;
75426;SDS011;64007;50.632;13.700;2023-02-01T01:52:12;6.68;;;1.48;;
75426;SDS011;64007;50.632;13.700;2023-02-01T01:54:38;7.03;;;1.63;;
75426;SDS011;64007;50.632;13.700;2023-02-01T01:57:27;6.13;;;1.45;;
75426;SDS011;64007;50.632;13.700;2023-02-01T02:00:10;3.67;;;1.35;;
75426;SDS011;64007;50.632;13.700;2023-02-01T02:02:42;2.40;;;1.00;;
75426;SDS011;64007;50.632;13.700;2023-02-01T02:05:10;6.47;;;1.40;;
75426;SDS011;64007;50.632;13.700;2023-02-01T02:07:39;5.22;;;1.48;;
75426;SDS011;64007;50.632;13.700;2023-02-01T02:10:08;6.97;;;1.42;;
75426;SDS011;64007;50.632;13.700;2023-02-01T02:12:39;5.53;;;1.50;;
75426;SDS011;64007;50.632;13.700;2023-02-01T02:15:10;5.78;;;1.60;;
75426;SDS011;64007;50.632;13.700;2023-02-01T02:20:22;8.13;;;1.70;;
75426;SDS011;64007;50.632;13.700;2023-02-01T02:34:46;7.07;;;1.58;;
75426;SDS011;64007;50.632;13.700;2023-02-01T02:36:56;5.32;;;1.48;;
75426;SDS011;64007;50.632;13.700;2023-02-01T02:51:28;9.02;;;1.67;;
75426;SDS011;64007;50.632;13.700;2023-02-01T02:54:46;4.15;;;1.15;;
75426;SDS011;64007;50.632;13.700;2023-02-01T02:57:21;6.10;;;1.53;;
75426;SDS011;64007;50.632;13.700;2023-02-01T03:02:56;11.20;;;1.42;;
75426;SDS011;64007;50.632;13.700;2023-02-01T03:05:49;7.25;;;1.58;;
75426;SDS011;64007;50.632;13.700;2023-02-01T03:08:20;10.55;;;1.60;;
75426;SDS011;64007;50.632;13.700;2023-02-01T03:15:59;7.13;;;1.65;;
75426;SDS011;64007;50.632;13.700;2023-02-01T03:21:10;4.78;;;1.38;;
75426;SDS011;64007;50.632;13.700;2023-02-01T03:23:41;7.72;;;1.63;;
75426;SDS011;64007;50.632;13.700;2023-02-01T03:26:10;10.38;;;1.50;;
75426;SDS011;64007;50.632;13.700;2023-02-01T03:28:42;9.60;;;1.30;;
75426;SDS011;64007;50.632;13.700;2023-02-01T03:31:14;7.75;;;1.70;;
75426;SDS011;64007;50.632;13.700;2023-02-01T03:33:40;8.32;;;1.60;;
75426;SDS011;64007;50.632;13.700;2023-02-01T03:39:08;6.40;;;1.38;;
75426;SDS011;64007;50.632;13.700;2023-02-01T03:41:44;8.32;;;1.48;;
75426;SDS011;64007;50.632;13.700;2023-02-01T03:44:16;5.40;;;1.60;;
75426;SDS011;64007;50.632;13.700;2023-02-01T03:46:49;5.03;;;1.48;;
75426;SDS011;64007;50.632;13.700;2023-02-01T03:49:25;7.03;;;1.40;;
75426;SDS011;64007;50.632;13.700;2023-02-01T03:51:54;9.73;;;1.60;;
75426;SDS011;64007;50.632;13.700;2023-02-01T03:54:23;9.63;;;1.52;;
75426;SDS011;64007;50.632;13.700;2023-02-01T03:56:50;8.30;;;1.20;;
75426;SDS011;64007;50.632;13.700;2023-02-01T03:59:20;7.63;;;1.77;;
75426;SDS011;64007;50.632;13.700;2023-02-01T04:01:45;6.72;;;1.60;;
75426;SDS011;64007;50.632;13.700;2023-02-01T04:04:11;6.63;;;1.88;;
75426;SDS011;64007;50.632;13.700;2023-02-01T04:06:51;4.63;;;1.33;;
75426;SDS011;64007;50.632;13.700;2023-02-01T04:09:17;5.10;;;1.15;;
75426;SDS011;64007;50.632;13.700;2023-02-01T04:11:43;7.32;;;1.67;;
75426;SDS011;64007;50.632;13.700;2023-02-01T04:14:09;10.13;;;1.52;;
75426;SDS011;64007;50.632;13.700;2023-02-01T04:16:35;4.90;;;1.25;;
75426;SDS011;64007;50.632;13.700;2023-02-01T04:19:01;8.13;;;1.70;;
75426;SDS011;64007;50.632;13.700;2023-02-01T04:21:26;10.38;;;1.80;;
75426;SDS011;64007;50.632;13.700;2023-02-01T04:23:53;9.55;;;1.50;;
75426;SDS011;64007;50.632;13.700;2023-02-01T04:26:19;7.13;;;1.52;;
75426;SDS011;64007;50.632;13.700;2023-02-01T04:28:46;7.63;;;1.67;;
75426;SDS011;64007;50.632;13.700;2023-02-01T04:31:14;8.48;;;1.63;;
75426;SDS011;64007;50.632;13.700;2023-02-01T04:33:41;12.70;;;1.73;;
75426;SDS011;64007;50.632;13.700;2023-02-01T04:36:07;6.38;;;1.23;;
75426;SDS011;64007;50.632;13.700;2023-02-01T04:38:34;11.82;;;1.50;;
75426;SDS011;64007;50.632;13.700;2023-02-01T04:40:59;5.78;;;1.70;;
75426;SDS011;64007;50.632;13.700;2023-02-01T04:43:26;11.48;;;1.73;;
75426;SDS011;64007;50.632;13.700;2023-02-01T04:45:52;11.02;;;1.65;;
75426;SDS011;64007;50.632;13.700;2023-02-01T04:48:19;8.10;;;1.80;;
75426;SDS011;64007;50.632;13.700;2023-02-01T04:50:45;9.73;;;1.45;;
75426;SDS011;64007;50.632;13.700;2023-02-01T04:53:16;7.35;;;1.85;;
75426;SDS011;64007;50.632;13.700;2023-02-01T04:55:42;9.70;;;1.83;;
75426;SDS011;64007;50.632;13.700;2023-02-01T04:58:09;6.13;;;1.45;;
75426;SDS011;64007;50.632;13.700;2023-02-01T05:00:36;5.97;;;1.52;;
75426;SDS011;64007;50.632;13.700;2023-02-01T05:03:03;7.55;;;1.45;;
75426;SDS011;64007;50.632;13.700;2023-02-01T05:05:28;7.65;;;1.63;;
75426;SDS011;64007;50.632;13.700;2023-02-01T05:07:54;12.57;;;1.75;;
75426;SDS011;64007;50.632;13.700;2023-02-01T05:10:21;8.68;;;2.08;;
75426;SDS011;64007;50.632;13.700;2023-02-01T05:12:47;6.93;;;1.60;;
75426;SDS011;64007;50.632;13.700;2023-02-01T05:15:31;10.05;;;1.52;;
75426;SDS011;64007;50.632;13.700;2023-02-01T05:17:57;9.18;;;1.48;;
75426;SDS011;64007;50.632;13.700;2023-02-01T05:20:23;10.18;;;1.67;;
75426;SDS011;64007;50.632;13.700;2023-02-01T05:22:49;8.55;;;1.52;;
75426;SDS011;64007;50.632;13.700;2023-02-01T05:25:15;9.77;;;1.80;;
75426;SDS011;64007;50.632;13.700;2023-02-01T05:27:42;12.55;;;1.88;;
75426;SDS011;64007;50.632;13.700;2023-02-01T05:30:09;8.25;;;1.50;;
75426;SDS011;64007;50.632;13.700;2023-02-01T05:32:35;11.57;;;1.45;;
75426;SDS011;64007;50.632;13.700;2023-02-01T05:35:01;5.57;;;1.65;;
75426;SDS011;64007;50.632;13.700;2023-02-01T05:37:27;11.65;;;2.00;;
75426;SDS011;64007;50.632;13.700;2023-02-01T05:39:53;10.07;;;2.13;;
75426;SDS011;64007;50.632;13.700;2023-02-01T05:42:19;12.48;;;2.03;;
75426;SDS011;64007;50.632;13.700;2023-02-01T05:44:44;9.07;;;1.58;;
75426;SDS011;64007;50.632;13.700;2023-02-01T05:47:10;11.20;;;1.98;;
75426;SDS011;64007;50.632;13.700;2023-02-01T05:49:37;8.50;;;1.70;;
75426;SDS011;64007;50.632;13.700;2023-02-01T05:52:03;11.98;;;1.90;;
75426;SDS011;64007;50.632;13.700;2023-02-01T05:54:29;11.82;;;2.38;;
75426;SDS011;64007;50.632;13.700;2023-02-01T05:56:55;10.45;;;2.05;;
75426;SDS011;64007;50.632;13.700;2023-02-01T05:59:20;9.27;;;2.63;;
75426;SDS011;64007;50.632;13.700;2023-02-01T06:01:46;9.60;;;2.03;;
75426;SDS011;64007;50.632;13.700;2023-02-01T06:04:12;10.32;;;2.30;;
75426;SDS011;64007;50.632;13.700;2023-02-01T06:06:38;10.70;;;1.70;;
75426;SDS011;64007;50.632;13.700;2023-02-01T06:09:03;13.02;;;2.53;;
75426;SDS011;64007;50.632;13.700;2023-02-01T06:11:30;8.40;;;2.33;;
75426;SDS011;64007;50.632;13.700;2023-02-01T06:13:56;10.48;;;1.75;;
75426;SDS011;64007;50.632;13.700;2023-02-01T06:16:22;12.98;;;2.25;;
75426;SDS011;64007;50.632;13.700;2023-02-01T06:18:48;7.38;;;2.10;;
75426;SDS011;64007;50.632;13.700;2023-02-01T06:21:14;11.10;;;1.83;;
75426;SDS011;64007;50.632;13.700;2023-02-01T06:23:49;10.43;;;1.90;;
75426;SDS011;64007;50.632;13.700;2023-02-01T06:26:16;8.23;;;1.92;;
75426;SDS011;64007;50.632;13.700;2023-02-01T06:28:43;11.20;;;2.35;;
75426;SDS011;64007;50.632;13.700;2023-02-01T06:31:09;15.02;;;2.25;;
75426;SDS011;64007;50.632;13.700;2023-02-01T06:33:34;15.30;;;2.78;;
75426;SDS011;64007;50.632;13.700;2023-02-01T06:36:02;6.60;;;2.20;;
75426;SDS011;64007;50.632;13.700;2023-02-01T06:38:30;11.25;;;1.98;;
75426;SDS011;64007;50.632;13.700;2023-02-01T06:40:57;10.80;;;1.67;;
75426;SDS011;64007;50.632;13.700;2023-02-01T06:43:23;5.38;;;1.70;;
75426;SDS011;64007;50.632;13.700;2023-02-01T06:45:51;9.63;;;2.03;;
75426;SDS011;64007;50.632;13.700;2023-02-01T06:48:17;9.07;;;1.58;;
75426;SDS011;64007;50.632;13.700;2023-02-01T06:50:43;9.40;;;1.73;;
75426;SDS011;64007;50.632;13.700;2023-02-01T06:53:09;9.75;;;2.53;;
75426;SDS011;64007;50.632;13.700;2023-02-01T06:55:35;6.85;;;2.00;;
75426;SDS011;64007;50.632;13.700;2023-02-01T06:58:01;8.52;;;1.90;;
75426;SDS011;64007;50.632;13.700;2023-02-01T07:00:28;9.65;;;1.88;;
75426;SDS011;64007;50.632;13.700;2023-02-01T07:02:54;10.20;;;1.63;;
75426;SDS011;64007;50.632;13.700;2023-02-01T07:05:20;12.65;;;1.98;;
75426;SDS011;64007;50.632;13.700;2023-02-01T07:07:46;10.07;;;1.90;;
75426;SDS011;64007;50.632;13.700;2023-02-01T07:10:12;7.97;;;1.95;;
75426;SDS011;64007;50.632;13.700;2023-02-01T07:12:38;8.77;;;1.63;;
75426;SDS011;64007;50.632;13.700;2023-02-01T07:15:04;10.35;;;1.80;;
75426;SDS011;64007;50.632;13.700;2023-02-01T07:17:31;10.32;;;1.90;;
75426;SDS011;64007;50.632;13.700;2023-02-01T07:19:57;9.63;;;2.22;;
75426;SDS011;64007;50.632;13.700;2023-02-01T07:22:25;10.40;;;2.10;;
75426;SDS011;64007;50.632;13.700;2023-02-01T07:24:51;8.70;;;2.13;;
75426;SDS011;64007;50.632;13.700;2023-02-01T07:27:16;6.22;;;1.75;;
75426;SDS011;64007;50.632;13.700;2023-02-01T07:29:42;7.53;;;1.83;;
75426;SDS011;64007;50.632;13.700;2023-02-01T07:32:08;10.98;;;1.95;;
75426;SDS011;64007;50.632;13.700;2023-02-01T07:34:34;10.07;;;1.90;;
75426;SDS011;64007;50.632;13.700;2023-02-01T07:36:59;5.70;;;1.73;;
75426;SDS011;64007;50.632;13.700;2023-02-01T07:39:25;12.40;;;2.13;;
75426;SDS011;64007;50.632;13.700;2023-02-01T07:41:53;5.82;;;1.67;;
75426;SDS011;64007;50.632;13.700;2023-02-01T07:44:19;12.30;;;1.95;;
75426;SDS011;64007;50.632;13.700;2023-02-01T07:46:48;11.27;;;1.92;;
75426;SDS011;64007;50.632;13.700;2023-02-01T07:49:14;8.95;;;1.85;;
75426;SDS011;64007;50.632;13.700;2023-02-01T07:51:40;8.85;;;1.95;;
75426;SDS011;64007;50.632;13.700;2023-02-01T07:54:06;9.68;;;2.05;;
75426;SDS011;64007;50.632;13.700;2023-02-01T07:56:32;6.75;;;1.80;;
75426;SDS011;64007;50.632;13.700;2023-02-01T07:58:57;10.95;;;2.28;;
75426;SDS011;64007;50.632;13.700;2023-02-01T08:01:26;5.18;;;1.60;;
75426;SDS011;64007;50.632;13.700;2023-02-01T08:03:54;5.93;;;1.98;;
75426;SDS011;64007;50.632;13.700;2023-02-01T08:06:21;7.93;;;1.98;;
75426;SDS011;64007;50.632;13.700;2023-02-01T08:08:50;9.25;;;2.13;;
75426;SDS011;64007;50.632;13.700;2023-02-01T08:11:17;9.90;;;2.08;;
75426;SDS011;64007;50.632;13.700;2023-02-01T08:13:44;9.68;;;1.80;;
75426;SDS011;64007;50.632;13.700;2023-02-01T08:16:11;10.93;;;2.10;;
75426;SDS011;64007;50.632;13.700;2023-02-01T08:18:38;10.60;;;2.13;;
75426;SDS011;64007;50.632;13.700;2023-02-01T08:21:12;6.82;;;1.67;;
75426;SDS011;64007;50.632;13.700;2023-02-01T08:23:38;8.90;;;2.10;;
75426;SDS011;64007;50.632;13.700;2023-02-01T08:26:06;6.25;;;1.80;;
75426;SDS011;64007;50.632;13.700;2023-02-01T08:29:50;9.13;;;1.98;;
75426;SDS011;64007;50.632;13.700;2023-02-01T08:32:16;9.35;;;2.03;;
75426;SDS011;64007;50.632;13.700;2023-02-01T08:34:42;11.50;;;1.92;;
75426;SDS011;64007;50.632;13.700;2023-02-01T08:37:08;7.20;;;1.90;;
75426;SDS011;64007;50.632;13.700;2023-02-01T08:39:35;7.05;;;1.48;;
75426;SDS011;64007;50.632;13.700;2023-02-01T08:42:01;10.60;;;2.08;;
75426;SDS011;64007;50.632;13.700;2023-02-01T08:44:46;7.40;;;1.58;;
75426;SDS011;64007;50.632;13.700;2023-02-01T08:47:12;6.72;;;1.80;;
75426;SDS011;64007;50.632;13.700;2023-02-01T08:49:38;6.95;;;1.83;;
75426;SDS011;64007;50.632;13.700;2023-02-01T08:52:04;8.77;;;2.22;;
75426;SDS011;64007;50.632;13.700;2023-02-01T08:54:29;9.68;;;1.77;;
75426;SDS011;64007;50.632;13.700;2023-02-01T08:56:58;6.50;;;1.65;;
75426;SDS011;64007;50.632;13.700;2023-02-01T08:59:23;8.35;;;2.03;;
75426;SDS011;64007;50.632;13.700;2023-02-01T09:01:49;7.95;;;1.90;;
75426;SDS011;64007;50.632;13.700;2023-02-01T09:04:15;10.95;;;1.63;;
75426;SDS011;64007;50.632;13.700;2023-02-01T09:06:41;7.40;;;1.60;;
75426;SDS011;64007;50.632;13.700;2023-02-01T09:09:06;7.03;;;1.75;;
75426;SDS011;64007;50.632;13.700;2023-02-01T09:11:32;4.55;;;1.50;;
75426;SDS011;64007;50.632;13.700;2023-02-01T09:13:58;6.88;;;1.45;;
75426;SDS011;64007;50.632;13.700;2023-02-01T09:16:24;9.25;;;1.75;;
75426;SDS011;64007;50.632;13.700;2023-02-01T09:18:50;8.48;;;1.75;;
75426;SDS011;64007;50.632;13.700;2023-02-01T09:21:15;7.75;;;1.55;;
75426;SDS011;64007;50.632;13.700;2023-02-01T09:23:42;7.85;;;2.38;;
75426;SDS011;64007;50.632;13.700;2023-02-01T09:26:08;8.23;;;1.83;;
75426;SDS011;64007;50.632;13.700;2023-02-01T09:28:34;8.38;;;1.52;;
75426;SDS011;64007;50.632;13.700;2023-02-01T09:31:00;4.90;;;1.33;;
75426;SDS011;64007;50.632;13.700;2023-02-01T09:33:27;6.15;;;1.58;;
75426;SDS011;64007;50.632;13.700;2023-02-01T09:36:01;8.98;;;1.33;;
75426;SDS011;64007;50.632;13.700;2023-02-01T09:38:29;5.20;;;1.13;;
75426;SDS011;64007;50.632;13.700;2023-02-01T09:40:55;7.60;;;1.35;;
75426;SDS011;64007;50.632;13.700;2023-02-01T09:43:25;4.03;;;1.15;;
75426;SDS011;64007;50.632;13.700;2023-02-01T09:46:37;6.07;;;1.38;;
75426;SDS011;64007;50.632;13.700;2023-02-01T09:49:22;4.28;;;1.30;;
75426;SDS011;64007;50.632;13.700;2023-02-01T09:52:04;4.03;;;1.42;;
75426;SDS011;64007;50.632;13.700;2023-02-01T09:54:44;11.55;;;1.50;;
75426;SDS011;64007;50.632;13.700;2023-02-01T09:57:23;6.05;;;1.08;;
75426;SDS011;64007;50.632;13.700;2023-02-01T09:59:54;5.30;;;1.25;;
75426;SDS011;64007;50.632;13.700;2023-02-01T10:02:27;3.17;;;1.00;;
75426;SDS011;64007;50.632;13.700;2023-02-01T10:04:54;3.22;;;1.20;;
75426;SDS011;64007;50.632;13.700;2023-02-01T10:10:15;4.40;;;1.50;;
75426;SDS011;64007;50.632;13.700;2023-02-01T10:26:20;5.60;;;1.25;;
75426;SDS011;64007;50.632;13.700;2023-02-01T10:28:49;6.78;;;1.60;;
75426;SDS011;64007;50.632;13.700;2023-02-01T10:31:18;3.70;;;1.65;;
75426;SDS011;64007;50.632;13.700;2023-02-01T10:33:50;3.45;;;1.13;;
75426;SDS011;64007;50.632;13.700;2023-02-01T10:38:48;4.75;;;1.17;;
75426;SDS011;64007;50.632;13.700;2023-02-01T10:41:15;3.45;;;1.00;;
75426;SDS011;64007;50.632;13.700;2023-02-01T10:43:45;5.93;;;1.25;;
75426;SDS011;64007;50.632;13.700;2023-02-01T10:46:15;2.92;;;0.80;;
75426;SDS011;64007;50.632;13.700;2023-02-01T10:48:42;2.05;;;0.80;;
75426;SDS011;64007;50.632;13.700;2023-02-01T10:51:55;2.35;;;0.80;;
75426;SDS011;64007;50.632;13.700;2023-02-01T10:54:11;2.30;;;1.00;;
75426;SDS011;64007;50.632;13.700;2023-02-01T10:56:42;3.22;;;1.05;;
75426;SDS011;64007;50.632;13.700;2023-02-01T10:59:14;4.50;;;1.38;;
75426;SDS011;64007;50.632;13.700;2023-02-01T11:01:43;2.10;;;1.20;;
75426;SDS011;64007;50.632;13.700;2023-02-01T11:06:45;4.88;;;1.40;;
75426;SDS011;64007;50.632;13.700;2023-02-01T11:09:17;4.65;;;1.40;;
75426;SDS011;64007;50.632;13.700;2023-02-01T11:17:00;5.20;;;1.30;;
75426;SDS011;64007;50.632;13.700;2023-02-01T11:19:28;5.63;;;1.60;;
75426;SDS011;64007;50.632;13.700;2023-02-01T11:21:58;5.63;;;1.63;;
75426;SDS011;64007;50.632;13.700;2023-02-01T11:24:29;5.18;;;1.73;;
75426;SDS011;64007;50.632;13.700;2023-02-01T11:29:25;5.03;;;1.40;;
75426;SDS011;64007;50.632;13.700;2023-02-01T11:31:59;6.25;;;1.33;;
75426;SDS011;64007;50.632;13.700;2023-02-01T11:34:26;3.83;;;1.40;;
75426;SDS011;64007;50.632;13.700;2023-02-01T11:36:59;5.03;;;1.60;;
75426;SDS011;64007;50.632;13.700;2023-02-01T11:39:29;6.15;;;1.90;;
75426;SDS011;64007;50.632;13.700;2023-02-01T11:42:01;6.05;;;1.58;;
75426;SDS011;64007;50.632;13.700;2023-02-01T11:46:55;8.52;;;1.92;;
75426;SDS011;64007;50.632;13.700;2023-02-01T11:49:38;7.90;;;1.52;;
75426;SDS011;64007;50.632;13.700;2023-02-01T11:52:18;9.13;;;1.77;;
75426;SDS011;64007;50.632;13.700;2023-02-01T11:57:46;7.82;;;2.10;;
75426;SDS011;64007;50.632;13.700;2023-02-01T12:03:30;11.32;;;1.80;;
75426;SDS011;64007;50.632;13.700;2023-02-01T12:14:34;5.80;;;1.17;;
75426;SDS011;64007;50.632;13.700;2023-02-01T12:42:08;9.38;;;1.40;;
75426;SDS011;64007;50.632;13.700;2023-02-01T12:48:17;3.83;;;1.25;;
75426;SDS011;64007;50.632;13.700;2023-02-01T12:50:53;6.45;;;1.15;;
75426;SDS011;64007;50.632;13.700;2023-02-01T12:56:22;5.93;;;1.52;;
75426;SDS011;64007;50.632;13.700;2023-02-01T12:58:56;6.20;;;2.72;;
75426;SDS011;64007;50.632;13.700;2023-02-01T13:01:33;6.55;;;1.63;;
75426;SDS011;64007;50.632;13.700;2023-02-01T13:09:20;7.03;;;1.67;;
75426;SDS011;64007;50.632;13.700;2023-02-01T13:11:51;6.57;;;1.73;;
75426;SDS011;64007;50.632;13.700;2023-02-01T13:17:09;5.80;;;1.70;;
75426;SDS011;64007;50.632;13.700;2023-02-01T13:19:49;5.70;;;1.65;;
75426;SDS011;64007;50.632;13.700;2023-02-01T13:22:21;6.43;;;1.70;;
75426;SDS011;64007;50.632;13.700;2023-02-01T13:25:02;6.50;;;1.60;;
75426;SDS011;64007;50.632;13.700;2023-02-01T13:27:36;4.47;;;1.40;;
75426;SDS011;64007;50.632;13.700;2023-02-01T13:30:10;11.13;;;1.35;;
75426;SDS011;64007;50.632;13.700;2023-02-01T13:40:34;6.68;;;1.45;;
75426;SDS011;64007;50.632;13.700;2023-02-01T13:45:36;7.43;;;1.60;;
75426;SDS011;64007;50.632;13.700;2023-02-01T13:48:14;6.68;;;1.92;;
75426;SDS011;64007;50.632;13.700;2023-02-01T13:50:48;9.95;;;2.03;;
75426;SDS011;64007;50.632;13.700;2023-02-01T13:55:50;8.52;;;1.83;;
75426;SDS011;64007;50.632;13.700;2023-02-01T13:58:28;7.50;;;1.30;;
75426;SDS011;64007;50.632;13.700;2023-02-01T14:03:59;5.20;;;1.17;;
75426;SDS011;64007;50.632;13.700;2023-02-01T14:11:37;5.70;;;1.48;;
75426;SDS011;64007;50.632;13.700;2023-02-01T14:19:35;6.45;;;1.65;;
75426;SDS011;64007;50.632;13.700;2023-02-01T14:22:35;6.15;;;1.27;;
75426;SDS011;64007;50.632;13.700;2023-02-01T14:24:58;6.82;;;1.67;;
75426;SDS011;64007;50.632;13.700;2023-02-01T14:27:25;6.90;;;1.27;;
75426;SDS011;64007;50.632;13.700;2023-02-01T14:29:56;7.13;;;1.73;;
75426;SDS011;64007;50.632;13.700;2023-02-01T14:32:31;5.35;;;1.50;;
75426;SDS011;64007;50.632;13.700;2023-02-01T14:35:02;6.15;;;1.40;;
75426;SDS011;64007;50.632;13.700;2023-02-01T14:37:35;10.82;;;1.48;;
75426;SDS011;64007;50.632;13.700;2023-02-01T15:03:54;9.73;;;2.17;;
75426;SDS011;64007;50.632;13.700;2023-02-01T15:06:29;7.55;;;1.67;;
75426;SDS011;64007;50.632;13.700;2023-02-01T15:09:15;5.75;;;1.58;;
75426;SDS011;64007;50.632;13.700;2023-02-01T15:14:24;7.72;;;2.35;;
75426;SDS011;64007;50.632;13.700;2023-02-01T15:16:51;6.57;;;1.95;;
75426;SDS011;64007;50.632;13.700;2023-02-01T15:19:26;5.32;;;1.90;;
75426;SDS011;64007;50.632;13.700;2023-02-01T15:21:54;4.68;;;1.70;;
75426;SDS011;64007;50.632;13.700;2023-02-01T15:26:49;4.30;;;1.35;;
75426;SDS011;64007;50.632;13.700;2023-02-01T15:29:16;4.22;;;1.25;;
75426;SDS011;64007;50.632;13.700;2023-02-01T15:31:46;10.45;;;1.63;;
75426;SDS011;64007;50.632;13.700;2023-02-01T15:34:14;8.18;;;2.05;;
75426;SDS011;64007;50.632;13.700;2023-02-01T15:36:41;7.32;;;1.75;;
75426;SDS011;64007;50.632;13.700;2023-02-01T15:39:18;6.50;;;1.42;;
75426;SDS011;64007;50.632;13.700;2023-02-01T15:44:28;10.88;;;1.60;;
75426;SDS011;64007;50.632;13.700;2023-02-01T15:47:18;3.75;;;1.30;;
75426;SDS011;64007;50.632;13.700;2023-02-01T15:49:52;5.70;;;1.55;;
75426;SDS011;64007;50.632;13.700;2023-02-01T15:55:01;5.05;;;1.70;;
75426;SDS011;64007;50.632;13.700;2023-02-01T15:57:34;7.53;;;1.90;;
75426;SDS011;64007;50.632;13.700;2023-02-01T16:00:03;7.38;;;1.88;;
75426;SDS011;64007;50.632;13.700;2023-02-01T16:05:30;5.32;;;2.63;;
75426;SDS011;64007;50.632;13.700;2023-02-01T16:08:03;9.15;;;2.75;;
75426;SDS011;64007;50.632;13.700;2023-02-01T16:10:38;6.93;;;2.10;;
75426;SDS011;64007;50.632;13.700;2023-02-01T16:13:06;8.80;;;2.00;;
75426;SDS011;64007;50.632;13.700;2023-02-01T16:15:32;9.90;;;2.58;;
75426;SDS011;64007;50.632;13.700;2023-02-01T16:17:58;5.57;;;1.77;;
75426;SDS011;64007;50.632;13.700;2023-02-01T16:20:23;11.57;;;2.50;;
75426;SDS011;64007;50.632;13.700;2023-02-01T16:22:50;9.68;;;2.35;;
75426;SDS011;64007;50.632;13.700;2023-02-01T16:25:16;7.13;;;2.53;;
75426;SDS011;64007;50.632;13.700;2023-02-01T16:27:41;12.13;;;2.35;;
75426;SDS011;64007;50.632;13.700;2023-02-01T16:30:07;9.88;;;2.33;;
75426;SDS011;64007;50.632;13.700;2023-02-01T16:32:35;11.13;;;3.00;;
75426;SDS011;64007;50.632;13.700;2023-02-01T16:35:05;11.95;;;3.00;;
75426;SDS011;64007;50.632;13.700;2023-02-01T16:37:44;8.02;;;2.20;;
75426;SDS011;64007;50.632;13.700;2023-02-01T16:40:19;9.07;;;2.30;;
75426;SDS011;64007;50.632;13.700;2023-02-01T16:42:49;11.38;;;2.30;;
75426;SDS011;64007;50.632;13.700;2023-02-01T16:45:16;8.55;;;1.88;;
75426;SDS011;64007;50.632;13.700;2023-02-01T16:47:47;9.88;;;2.42;;
75426;SDS011;64007;50.632;13.700;2023-02-01T16:50:17;5.90;;;1.38;;
75426;SDS011;64007;50.632;13.700;2023-02-01T16:52:46;7.50;;;2.22;;
75426;SDS011;64007;50.632;13.700;2023-02-01T16:55:12;7.38;;;1.58;;
75426;SDS011;64007;50.632;13.700;2023-02-01T16:57:42;9.65;;;1.55;;
75426;SDS011;64007;50.632;13.700;2023-02-01T17:00:08;5.80;;;1.63;;
75426;SDS011;64007;50.632;13.700;2023-02-01T17:02:35;8.05;;;1.80;;
75426;SDS011;64007;50.632;13.700;2023-02-01T17:05:01;9.75;;;2.35;;
75426;SDS011;64007;50.632;13.700;2023-02-01T17:07:27;8.43;;;2.00;;
75426;SDS011;64007;50.632;13.700;2023-02-01T17:09:53;6.07;;;1.70;;
75426;SDS011;64007;50.632;13.700;2023-02-01T17:12:23;7.40;;;1.92;;
75426;SDS011;64007;50.632;13.700;2023-02-01T17:14:51;6.68;;;1.50;;
75426;SDS011;64007;50.632;13.700;2023-02-01T17:17:17;9.60;;;1.90;;
75426;SDS011;64007;50.632;13.700;2023-02-01T17:19:45;2.95;;;1.20;;
75426;SDS011;64007;50.632;13.700;2023-02-01T17:22:17;5.55;;;1.67;;
75426;SDS011;64007;50.632;13.700;2023-02-01T17:24:46;4.00;;;1.33;;
75426;SDS011;64007;50.632;13.700;2023-02-01T17:27:13;11.65;;;1.52;;
75426;SDS011;64007;50.632;13.700;2023-02-01T17:29:39;5.68;;;1.65;;
75426;SDS011;64007;50.632;13.700;2023-02-01T17:32:07;3.28;;;1.02;;
75426;SDS011;64007;50.632;13.700;2023-02-01T17:34:40;6.40;;;1.10;;
75426;SDS011;64007;50.632;13.700;2023-02-01T17:37:08;1.35;;;0.60;;
75426;SDS011;64007;50.632;13.700;2023-02-01T17:39:45;1.30;;;0.30;;
75426;SDS011;64007;50.632;13.700;2023-02-01T17:42:19;0.88;;;0.50;;
75426;SDS011;64007;50.632;13.700;2023-02-01T17:44:45;0.20;;;0.20;;
75426;SDS011;64007;50.632;13.700;2023-02-01T17:47:11;1.33;;;0.70;;
75426;SDS011;64007;50.632;13.700;2023-02-01T17:49:37;1.10;;;0.40;;
75426;SDS011;64007;50.632;13.700;2023-02-01T17:52:03;1.75;;;0.43;;
75426;SDS011;64007;50.632;13.700;2023-02-01T17:54:30;0.35;;;0.30;;
75426;SDS011;64007;50.632;13.700;2023-02-01T17:56:56;1.52;;;0.70;;